sensor_id;sensor_type;location;lat;lon;timestamp;P1;durP1;ratioP1;P2;durP2;ratioP2
60867;SDS011;46702;48.370;10.794;2022-09-13T00:00:37;2.33;;;1.90;;
60867;SDS011;46702;48.370;10.794;2022-09-13T00:03:03;3.22;;;2.10;;
60867;SDS011;46702;48.370;10.794;2022-09-13T00:05:30;2.70;;;2.20;;
60867;SDS011;46702;48.370;10.794;2022-09-13T00:07:56;3.05;;;2.35;;
60867;SDS011;46702;48.370;10.794;2022-09-13T00:10:23;3.60;;;2.42;;
60867;SDS011;46702;48.370;10.794;2022-09-13T00:12:49;2.38;;;2.00;;
60867;SDS011;46702;48.370;10.794;2022-09-13T00:15:15;3.47;;;2.33;;
60867;SDS011;46702;48.370;10.794;2022-09-13T00:17:41;2.42;;;2.22;;
60867;SDS011;46702;48.370;10.794;2022-09-13T00:20:07;3.22;;;2.38;;
60867;SDS011;46702;48.370;10.794;2022-09-13T00:22:33;4.32;;;2.42;;
60867;SDS011;46702;48.370;10.794;2022-09-13T00:25:00;3.38;;;2.60;;
60867;SDS011;46702;48.370;10.794;2022-09-13T00:27:29;4.93;;;3.83;;
60867;SDS011;46702;48.370;10.794;2022-09-13T00:29:56;6.07;;;3.00;;
60867;SDS011;46702;48.370;10.794;2022-09-13T00:32:22;3.33;;;2.50;;
60867;SDS011;46702;48.370;10.794;2022-09-13T00:34:48;2.05;;;1.85;;
60867;SDS011;46702;48.370;10.794;2022-09-13T00:37:13;2.63;;;1.88;;
60867;SDS011;46702;48.370;10.794;2022-09-13T00:39:39;1.75;;;1.65;;
60867;SDS011;46702;48.370;10.794;2022-09-13T00:42:08;1.27;;;1.23;;
60867;SDS011;46702;48.370;10.794;2022-09-13T00:44:57;1.15;;;1.05;;
60867;SDS011;46702;48.370;10.794;2022-09-13T00:47:44;1.15;;;1.05;;
60867;SDS011;46702;48.370;10.794;2022-09-13T00:52:57;1.73;;;1.63;;
60867;SDS011;46702;48.370;10.794;2022-09-13T00:55:43;2.60;;;1.92;;
60867;SDS011;46702;48.370;10.794;2022-09-13T00:58:17;2.30;;;1.88;;
60867;SDS011;46702;48.370;10.794;2022-09-13T01:00:48;1.73;;;1.63;;
60867;SDS011;46702;48.370;10.794;2022-09-13T01:03:14;1.85;;;1.70;;
60867;SDS011;46702;48.370;10.794;2022-09-13T01:05:44;2.15;;;1.98;;
60867;SDS011;46702;48.370;10.794;2022-09-13T01:08:13;3.15;;;2.10;;
60867;SDS011;46702;48.370;10.794;2022-09-13T01:10:46;2.65;;;2.17;;
60867;SDS011;46702;48.370;10.794;2022-09-13T01:13:22;2.60;;;2.03;;
60867;SDS011;46702;48.370;10.794;2022-09-13T01:15:51;2.15;;;1.95;;
60867;SDS011;46702;48.370;10.794;2022-09-13T01:18:17;3.67;;;2.00;;
60867;SDS011;46702;48.370;10.794;2022-09-13T01:26:41;1.90;;;1.80;;
60867;SDS011;46702;48.370;10.794;2022-09-13T01:32:07;1.30;;;1.23;;
60867;SDS011;46702;48.370;10.794;2022-09-13T01:45:28;1.60;;;1.50;;
60867;SDS011;46702;48.370;10.794;2022-09-13T01:48:01;4.68;;;1.83;;
60867;SDS011;46702;48.370;10.794;2022-09-13T01:50:42;1.83;;;1.50;;
60867;SDS011;46702;48.370;10.794;2022-09-13T01:56:21;2.78;;;1.75;;
60867;SDS011;46702;48.370;10.794;2022-09-13T01:58:56;3.63;;;1.88;;
60867;SDS011;46702;48.370;10.794;2022-09-13T02:04:04;2.67;;;2.20;;
60867;SDS011;46702;48.370;10.794;2022-09-13T02:06:44;4.78;;;1.70;;
60867;SDS011;46702;48.370;10.794;2022-09-13T02:09:15;1.70;;;1.60;;
60867;SDS011;46702;48.370;10.794;2022-09-13T02:11:49;1.30;;;1.20;;
60867;SDS011;46702;48.370;10.794;2022-09-13T02:14:23;1.38;;;1.30;;
60867;SDS011;46702;48.370;10.794;2022-09-13T02:17:00;1.48;;;1.38;;
60867;SDS011;46702;48.370;10.794;2022-09-13T02:20:00;1.17;;;1.13;;
60867;SDS011;46702;48.370;10.794;2022-09-13T02:22:31;1.23;;;1.20;;
60867;SDS011;46702;48.370;10.794;2022-09-13T02:25:03;2.03;;;1.80;;
60867;SDS011;46702;48.370;10.794;2022-09-13T02:27:32;1.83;;;1.48;;
60867;SDS011;46702;48.370;10.794;2022-09-13T02:30:08;1.40;;;1.30;;
60867;SDS011;46702;48.370;10.794;2022-09-13T02:32:37;2.72;;;1.70;;
60867;SDS011;46702;48.370;10.794;2022-09-13T02:35:15;2.92;;;2.22;;
60867;SDS011;46702;48.370;10.794;2022-09-13T02:37:45;2.70;;;1.80;;
60867;SDS011;46702;48.370;10.794;2022-09-13T02:40:17;2.53;;;2.00;;
60867;SDS011;46702;48.370;10.794;2022-09-13T02:42:51;3.55;;;2.13;;
60867;SDS011;46702;48.370;10.794;2022-09-13T02:45:24;3.35;;;2.30;;
60867;SDS011;46702;48.370;10.794;2022-09-13T02:47:57;3.30;;;1.95;;
60867;SDS011;46702;48.370;10.794;2022-09-13T02:50:32;4.90;;;2.10;;
60867;SDS011;46702;48.370;10.794;2022-09-13T03:01:28;2.38;;;2.13;;
60867;SDS011;46702;48.370;10.794;2022-09-13T03:03:54;2.88;;;1.80;;
60867;SDS011;46702;48.370;10.794;2022-09-13T03:06:21;2.10;;;1.90;;
60867;SDS011;46702;48.370;10.794;2022-09-13T03:08:48;2.50;;;2.07;;
60867;SDS011;46702;48.370;10.794;2022-09-13T03:17:12;3.15;;;2.15;;
60867;SDS011;46702;48.370;10.794;2022-09-13T03:22:47;3.17;;;2.17;;
60867;SDS011;46702;48.370;10.794;2022-09-13T03:28:19;1.95;;;1.83;;
60867;SDS011;46702;48.370;10.794;2022-09-13T03:31:10;2.05;;;1.95;;
60867;SDS011;46702;48.370;10.794;2022-09-13T03:33:58;2.28;;;2.10;;
60867;SDS011;46702;48.370;10.794;2022-09-13T03:36:39;2.15;;;1.80;;
60867;SDS011;46702;48.370;10.794;2022-09-13T03:39:08;3.72;;;1.88;;
60867;SDS011;46702;48.370;10.794;2022-09-13T03:41:45;2.92;;;2.08;;
60867;SDS011;46702;48.370;10.794;2022-09-13T03:44:15;2.05;;;1.85;;
60867;SDS011;46702;48.370;10.794;2022-09-13T03:46:44;3.33;;;2.08;;
60867;SDS011;46702;48.370;10.794;2022-09-13T03:49:16;2.40;;;1.90;;
60867;SDS011;46702;48.370;10.794;2022-09-13T03:51:45;3.30;;;2.40;;
60867;SDS011;46702;48.370;10.794;2022-09-13T03:54:17;5.22;;;2.15;;
60867;SDS011;46702;48.370;10.794;2022-09-13T03:59:34;2.20;;;1.90;;
60867;SDS011;46702;48.370;10.794;2022-09-13T04:02:03;4.20;;;2.60;;
60867;SDS011;46702;48.370;10.794;2022-09-13T04:04:31;2.92;;;1.92;;
60867;SDS011;46702;48.370;10.794;2022-09-13T04:06:57;2.80;;;2.40;;
60867;SDS011;46702;48.370;10.794;2022-09-13T04:09:27;2.10;;;1.92;;
60867;SDS011;46702;48.370;10.794;2022-09-13T04:11:53;3.20;;;2.33;;
60867;SDS011;46702;48.370;10.794;2022-09-13T04:14:19;3.92;;;2.40;;
60867;SDS011;46702;48.370;10.794;2022-09-13T04:16:46;3.90;;;2.45;;
60867;SDS011;46702;48.370;10.794;2022-09-13T04:19:12;3.78;;;2.40;;
60867;SDS011;46702;48.370;10.794;2022-09-13T04:21:38;4.15;;;2.40;;
60867;SDS011;46702;48.370;10.794;2022-09-13T04:24:03;2.08;;;1.75;;
60867;SDS011;46702;48.370;10.794;2022-09-13T04:26:29;1.67;;;1.58;;
60867;SDS011;46702;48.370;10.794;2022-09-13T04:28:55;2.33;;;1.77;;
60867;SDS011;46702;48.370;10.794;2022-09-13T04:31:21;1.98;;;1.80;;
60867;SDS011;46702;48.370;10.794;2022-09-13T04:33:48;1.65;;;1.55;;
60867;SDS011;46702;48.370;10.794;2022-09-13T04:36:13;1.60;;;1.50;;
60867;SDS011;46702;48.370;10.794;2022-09-13T04:38:40;1.60;;;1.50;;
60867;SDS011;46702;48.370;10.794;2022-09-13T04:41:06;1.85;;;1.27;;
60867;SDS011;46702;48.370;10.794;2022-09-13T04:43:32;3.22;;;1.70;;
60867;SDS011;46702;48.370;10.794;2022-09-13T04:46:00;4.82;;;1.92;;
60867;SDS011;46702;48.370;10.794;2022-09-13T04:48:26;2.85;;;1.90;;
60867;SDS011;46702;48.370;10.794;2022-09-13T04:50:51;1.80;;;1.70;;
60867;SDS011;46702;48.370;10.794;2022-09-13T04:53:17;1.80;;;1.60;;
60867;SDS011;46702;48.370;10.794;2022-09-13T04:55:43;1.92;;;1.73;;
60867;SDS011;46702;48.370;10.794;2022-09-13T04:58:09;3.20;;;1.70;;
60867;SDS011;46702;48.370;10.794;2022-09-13T05:00:35;2.60;;;1.85;;
60867;SDS011;46702;48.370;10.794;2022-09-13T05:03:01;2.95;;;2.00;;
60867;SDS011;46702;48.370;10.794;2022-09-13T05:05:27;2.15;;;1.90;;
60867;SDS011;46702;48.370;10.794;2022-09-13T05:07:55;2.63;;;1.90;;
60867;SDS011;46702;48.370;10.794;2022-09-13T05:10:20;3.03;;;2.20;;
60867;SDS011;46702;48.370;10.794;2022-09-13T05:12:46;1.85;;;1.73;;
60867;SDS011;46702;48.370;10.794;2022-09-13T05:15:12;2.30;;;2.10;;
60867;SDS011;46702;48.370;10.794;2022-09-13T05:17:38;3.50;;;1.77;;
60867;SDS011;46702;48.370;10.794;2022-09-13T05:20:03;1.70;;;1.60;;
60867;SDS011;46702;48.370;10.794;2022-09-13T05:22:30;1.83;;;1.60;;
60867;SDS011;46702;48.370;10.794;2022-09-13T05:24:56;1.40;;;1.30;;
60867;SDS011;46702;48.370;10.794;2022-09-13T05:27:21;2.15;;;1.70;;
60867;SDS011;46702;48.370;10.794;2022-09-13T05:29:47;4.72;;;2.30;;
60867;SDS011;46702;48.370;10.794;2022-09-13T05:32:13;4.38;;;2.60;;
60867;SDS011;46702;48.370;10.794;2022-09-13T05:34:38;3.45;;;2.05;;
60867;SDS011;46702;48.370;10.794;2022-09-13T05:37:04;2.55;;;1.98;;
60867;SDS011;46702;48.370;10.794;2022-09-13T05:39:30;2.80;;;2.50;;
60867;SDS011;46702;48.370;10.794;2022-09-13T05:41:55;3.30;;;2.20;;
60867;SDS011;46702;48.370;10.794;2022-09-13T05:44:21;2.97;;;2.45;;
60867;SDS011;46702;48.370;10.794;2022-09-13T05:46:47;5.97;;;2.67;;
60867;SDS011;46702;48.370;10.794;2022-09-13T05:49:13;4.28;;;2.20;;
60867;SDS011;46702;48.370;10.794;2022-09-13T05:51:39;2.72;;;2.30;;
60867;SDS011;46702;48.370;10.794;2022-09-13T05:54:04;3.72;;;2.40;;
60867;SDS011;46702;48.370;10.794;2022-09-13T05:56:30;2.17;;;1.90;;
60867;SDS011;46702;48.370;10.794;2022-09-13T05:58:56;2.85;;;2.65;;
60867;SDS011;46702;48.370;10.794;2022-09-13T06:01:24;2.38;;;2.17;;
60867;SDS011;46702;48.370;10.794;2022-09-13T06:03:51;2.70;;;2.47;;
60867;SDS011;46702;48.370;10.794;2022-09-13T06:06:20;2.75;;;2.45;;
60867;SDS011;46702;48.370;10.794;2022-09-13T06:08:47;2.97;;;2.30;;
60867;SDS011;46702;48.370;10.794;2022-09-13T06:11:16;3.72;;;3.00;;
60867;SDS011;46702;48.370;10.794;2022-09-13T06:13:41;3.35;;;2.75;;
60867;SDS011;46702;48.370;10.794;2022-09-13T06:16:11;3.90;;;2.58;;
60867;SDS011;46702;48.370;10.794;2022-09-13T06:18:37;4.70;;;2.90;;
60867;SDS011;46702;48.370;10.794;2022-09-13T06:21:05;7.93;;;3.13;;
60867;SDS011;46702;48.370;10.794;2022-09-13T06:23:36;4.00;;;3.33;;
60867;SDS011;46702;48.370;10.794;2022-09-13T06:26:03;4.05;;;3.25;;
60867;SDS011;46702;48.370;10.794;2022-09-13T06:28:31;4.40;;;2.92;;
60867;SDS011;46702;48.370;10.794;2022-09-13T06:31:01;5.07;;;3.08;;
60867;SDS011;46702;48.370;10.794;2022-09-13T06:33:28;3.53;;;2.70;;
60867;SDS011;46702;48.370;10.794;2022-09-13T06:35:53;7.50;;;2.88;;
60867;SDS011;46702;48.370;10.794;2022-09-13T06:38:19;5.95;;;3.30;;
60867;SDS011;46702;48.370;10.794;2022-09-13T06:40:45;5.70;;;3.20;;
60867;SDS011;46702;48.370;10.794;2022-09-13T06:43:10;3.80;;;3.10;;
60867;SDS011;46702;48.370;10.794;2022-09-13T06:45:36;4.78;;;3.17;;
60867;SDS011;46702;48.370;10.794;2022-09-13T06:48:02;4.32;;;2.92;;
60867;SDS011;46702;48.370;10.794;2022-09-13T06:50:28;7.10;;;3.50;;
60867;SDS011;46702;48.370;10.794;2022-09-13T06:52:55;5.85;;;3.33;;
60867;SDS011;46702;48.370;10.794;2022-09-13T06:55:21;4.90;;;3.47;;
60867;SDS011;46702;48.370;10.794;2022-09-13T06:57:47;5.53;;;3.08;;
60867;SDS011;46702;48.370;10.794;2022-09-13T07:00:12;3.50;;;3.20;;
60867;SDS011;46702;48.370;10.794;2022-09-13T07:02:39;3.67;;;2.60;;
60867;SDS011;46702;48.370;10.794;2022-09-13T07:05:05;3.50;;;2.30;;
60867;SDS011;46702;48.370;10.794;2022-09-13T07:07:31;2.97;;;2.38;;
60867;SDS011;46702;48.370;10.794;2022-09-13T07:09:56;2.95;;;2.53;;
60867;SDS011;46702;48.370;10.794;2022-09-13T07:12:22;5.43;;;2.20;;
60867;SDS011;46702;48.370;10.794;2022-09-13T07:14:48;3.17;;;2.13;;
60867;SDS011;46702;48.370;10.794;2022-09-13T07:17:13;2.95;;;2.65;;
60867;SDS011;46702;48.370;10.794;2022-09-13T07:19:39;3.25;;;2.45;;
60867;SDS011;46702;48.370;10.794;2022-09-13T07:22:05;3.75;;;2.17;;
60867;SDS011;46702;48.370;10.794;2022-09-13T07:24:30;4.05;;;2.58;;
60867;SDS011;46702;48.370;10.794;2022-09-13T07:26:56;2.95;;;1.88;;
60867;SDS011;46702;48.370;10.794;2022-09-13T07:29:22;2.42;;;2.22;;
60867;SDS011;46702;48.370;10.794;2022-09-13T07:31:48;4.30;;;1.73;;
60867;SDS011;46702;48.370;10.794;2022-09-13T07:34:19;2.40;;;2.20;;
60867;SDS011;46702;48.370;10.794;2022-09-13T07:36:47;2.58;;;1.77;;
60867;SDS011;46702;48.370;10.794;2022-09-13T07:39:13;1.80;;;1.70;;
60867;SDS011;46702;48.370;10.794;2022-09-13T07:41:40;2.60;;;1.70;;
60867;SDS011;46702;48.370;10.794;2022-09-13T07:44:05;1.70;;;1.60;;
60867;SDS011;46702;48.370;10.794;2022-09-13T07:46:32;2.42;;;1.80;;
60867;SDS011;46702;48.370;10.794;2022-09-13T07:49:05;2.55;;;1.83;;
60867;SDS011;46702;48.370;10.794;2022-09-13T07:51:33;2.47;;;1.90;;
60867;SDS011;46702;48.370;10.794;2022-09-13T07:54:01;1.90;;;1.80;;
60867;SDS011;46702;48.370;10.794;2022-09-13T07:56:30;2.13;;;1.92;;
60867;SDS011;46702;48.370;10.794;2022-09-13T07:58:58;1.83;;;1.73;;
60867;SDS011;46702;48.370;10.794;2022-09-13T08:01:25;1.40;;;1.35;;
60867;SDS011;46702;48.370;10.794;2022-09-13T08:03:58;2.00;;;1.67;;
60867;SDS011;46702;48.370;10.794;2022-09-13T08:06:25;3.03;;;1.60;;
60867;SDS011;46702;48.370;10.794;2022-09-13T08:08:53;1.60;;;1.50;;
60867;SDS011;46702;48.370;10.794;2022-09-13T08:11:31;1.70;;;1.60;;
60867;SDS011;46702;48.370;10.794;2022-09-13T08:13:58;2.42;;;1.92;;
60867;SDS011;46702;48.370;10.794;2022-09-13T08:16:25;1.60;;;1.50;;
60867;SDS011;46702;48.370;10.794;2022-09-13T08:18:52;1.52;;;1.40;;
60867;SDS011;46702;48.370;10.794;2022-09-13T08:21:19;1.50;;;1.40;;
60867;SDS011;46702;48.370;10.794;2022-09-13T08:23:46;1.60;;;1.50;;
60867;SDS011;46702;48.370;10.794;2022-09-13T08:26:12;3.17;;;1.85;;
60867;SDS011;46702;48.370;10.794;2022-09-13T08:28:39;2.33;;;1.58;;
60867;SDS011;46702;48.370;10.794;2022-09-13T08:33:36;3.65;;;1.40;;
60867;SDS011;46702;48.370;10.794;2022-09-13T08:36:02;1.40;;;1.30;;
60867;SDS011;46702;48.370;10.794;2022-09-13T08:38:28;1.52;;;1.42;;
60867;SDS011;46702;48.370;10.794;2022-09-13T08:40:56;1.58;;;1.48;;
60867;SDS011;46702;48.370;10.794;2022-09-13T08:46:25;1.80;;;1.50;;
60867;SDS011;46702;48.370;10.794;2022-09-13T08:48:57;1.60;;;1.50;;
60867;SDS011;46702;48.370;10.794;2022-09-13T08:51:31;1.38;;;1.27;;
60867;SDS011;46702;48.370;10.794;2022-09-13T08:54:04;1.75;;;1.65;;
60867;SDS011;46702;48.370;10.794;2022-09-13T08:56:41;2.58;;;1.50;;
60867;SDS011;46702;48.370;10.794;2022-09-13T08:59:15;1.60;;;1.50;;
60867;SDS011;46702;48.370;10.794;2022-09-13T09:07:10;1.50;;;1.40;;
60867;SDS011;46702;48.370;10.794;2022-09-13T09:09:52;1.67;;;1.50;;
60867;SDS011;46702;48.370;10.794;2022-09-13T09:12:47;1.30;;;1.30;;
60867;SDS011;46702;48.370;10.794;2022-09-13T09:18:08;2.25;;;1.50;;
60867;SDS011;46702;48.370;10.794;2022-09-13T09:20:41;2.20;;;1.70;;
60867;SDS011;46702;48.370;10.794;2022-09-13T09:23:13;1.98;;;1.65;;
60867;SDS011;46702;48.370;10.794;2022-09-13T09:25:42;2.08;;;1.70;;
60867;SDS011;46702;48.370;10.794;2022-09-13T09:28:12;3.85;;;1.60;;
60867;SDS011;46702;48.370;10.794;2022-09-13T09:30:45;1.88;;;1.70;;
60867;SDS011;46702;48.370;10.794;2022-09-13T09:38:43;1.70;;;1.60;;
60867;SDS011;46702;48.370;10.794;2022-09-13T09:41:11;1.92;;;1.77;;
60867;SDS011;46702;48.370;10.794;2022-09-13T09:43:49;2.83;;;1.50;;
60867;SDS011;46702;48.370;10.794;2022-09-13T09:46:25;1.95;;;1.48;;
60867;SDS011;46702;48.370;10.794;2022-09-13T09:49:30;1.98;;;1.80;;
60867;SDS011;46702;48.370;10.794;2022-09-13T09:52:27;1.60;;;1.50;;
60867;SDS011;46702;48.370;10.794;2022-09-13T09:55:13;2.85;;;1.90;;
60867;SDS011;46702;48.370;10.794;2022-09-13T09:57:48;2.13;;;1.60;;
60867;SDS011;46702;48.370;10.794;2022-09-13T10:00:15;2.10;;;1.60;;
60867;SDS011;46702;48.370;10.794;2022-09-13T10:02:42;3.72;;;1.60;;
60867;SDS011;46702;48.370;10.794;2022-09-13T10:05:09;1.70;;;1.60;;
60867;SDS011;46702;48.370;10.794;2022-09-13T10:07:36;2.33;;;1.65;;
60867;SDS011;46702;48.370;10.794;2022-09-13T10:10:23;2.75;;;1.70;;
60867;SDS011;46702;48.370;10.794;2022-09-13T10:12:52;1.40;;;1.30;;
60867;SDS011;46702;48.370;10.794;2022-09-13T10:15:21;3.30;;;1.60;;
60867;SDS011;46702;48.370;10.794;2022-09-13T10:18:12;1.33;;;1.23;;
60867;SDS011;46702;48.370;10.794;2022-09-13T10:20:40;2.33;;;1.50;;
60867;SDS011;46702;48.370;10.794;2022-09-13T10:25:38;1.98;;;1.20;;
60867;SDS011;46702;48.370;10.794;2022-09-13T10:30:41;1.95;;;1.40;;
60867;SDS011;46702;48.370;10.794;2022-09-13T10:33:27;1.98;;;1.25;;
60867;SDS011;46702;48.370;10.794;2022-09-13T10:36:00;2.60;;;1.60;;
60867;SDS011;46702;48.370;10.794;2022-09-13T10:38:40;1.63;;;1.52;;
60867;SDS011;46702;48.370;10.794;2022-09-13T10:41:08;1.83;;;1.33;;
60867;SDS011;46702;48.370;10.794;2022-09-13T10:43:44;1.60;;;1.17;;
60867;SDS011;46702;48.370;10.794;2022-09-13T10:46:11;3.22;;;1.40;;
60867;SDS011;46702;48.370;10.794;2022-09-13T10:48:46;2.25;;;1.35;;
60867;SDS011;46702;48.370;10.794;2022-09-13T10:56:20;2.45;;;1.50;;
60867;SDS011;46702;48.370;10.794;2022-09-13T10:58:49;1.98;;;1.15;;
60867;SDS011;46702;48.370;10.794;2022-09-13T11:01:17;1.23;;;1.20;;
60867;SDS011;46702;48.370;10.794;2022-09-13T11:06:54;1.83;;;1.20;;
60867;SDS011;46702;48.370;10.794;2022-09-13T11:09:36;1.30;;;1.20;;
60867;SDS011;46702;48.370;10.794;2022-09-13T11:14:59;1.52;;;1.25;;
60867;SDS011;46702;48.370;10.794;2022-09-13T11:23:52;1.35;;;1.25;;
60867;SDS011;46702;48.370;10.794;2022-09-13T11:26:42;1.10;;;1.10;;
60867;SDS011;46702;48.370;10.794;2022-09-13T11:35:03;1.60;;;1.40;;
60867;SDS011;46702;48.370;10.794;2022-09-13T11:46:26;2.78;;;1.38;;
60867;SDS011;46702;48.370;10.794;2022-09-13T11:49:08;2.75;;;1.40;;
60867;SDS011;46702;48.370;10.794;2022-09-13T11:52:08;1.35;;;1.30;;
60867;SDS011;46702;48.370;10.794;2022-09-13T11:57:43;1.98;;;1.20;;
60867;SDS011;46702;48.370;10.794;2022-09-13T12:05:22;1.27;;;1.20;;
60867;SDS011;46702;48.370;10.794;2022-09-13T12:07:55;2.45;;;1.25;;
60867;SDS011;46702;48.370;10.794;2022-09-13T12:10:36;1.58;;;1.17;;
60867;SDS011;46702;48.370;10.794;2022-09-13T12:13:26;1.88;;;1.05;;
60867;SDS011;46702;48.370;10.794;2022-09-13T12:15:56;1.25;;;1.15;;
60867;SDS011;46702;48.370;10.794;2022-09-13T12:18:27;1.42;;;1.10;;
60867;SDS011;46702;48.370;10.794;2022-09-13T12:20:57;1.02;;;1.02;;
60867;SDS011;46702;48.370;10.794;2022-09-13T12:23:32;1.92;;;1.10;;
60867;SDS011;46702;48.370;10.794;2022-09-13T12:26:25;1.20;;;1.10;;
60867;SDS011;46702;48.370;10.794;2022-09-13T12:28:58;1.10;;;1.10;;
60867;SDS011;46702;48.370;10.794;2022-09-13T12:31:33;1.23;;;1.05;;
60867;SDS011;46702;48.370;10.794;2022-09-13T12:33:58;1.15;;;1.05;;
60867;SDS011;46702;48.370;10.794;2022-09-13T12:44:53;1.20;;;1.20;;
60867;SDS011;46702;48.370;10.794;2022-09-13T12:58:20;1.10;;;1.08;;
60867;SDS011;46702;48.370;10.794;2022-09-13T13:06:09;1.95;;;1.10;;
60867;SDS011;46702;48.370;10.794;2022-09-13T13:08:52;1.08;;;1.08;;
60867;SDS011;46702;48.370;10.794;2022-09-13T13:11:27;1.50;;;1.35;;
60867;SDS011;46702;48.370;10.794;2022-09-13T13:14:02;1.10;;;1.10;;
60867;SDS011;46702;48.370;10.794;2022-09-13T13:16:39;1.00;;;1.00;;
60867;SDS011;46702;48.370;10.794;2022-09-13T13:19:26;1.25;;;1.00;;
60867;SDS011;46702;48.370;10.794;2022-09-13T13:21:53;2.00;;;1.20;;
60867;SDS011;46702;48.370;10.794;2022-09-13T13:26:46;0.93;;;0.93;;
60867;SDS011;46702;48.370;10.794;2022-09-13T13:29:15;0.93;;;0.93;;
60867;SDS011;46702;48.370;10.794;2022-09-13T13:34:39;0.80;;;0.80;;
60867;SDS011;46702;48.370;10.794;2022-09-13T13:39:43;1.00;;;1.00;;
60867;SDS011;46702;48.370;10.794;2022-09-13T13:42:25;0.90;;;0.90;;
60867;SDS011;46702;48.370;10.794;2022-09-13T13:44:57;1.48;;;0.95;;
60867;SDS011;46702;48.370;10.794;2022-09-13T13:47:41;1.48;;;1.38;;
60867;SDS011;46702;48.370;10.794;2022-09-13T13:50:18;2.08;;;1.08;;
60867;SDS011;46702;48.370;10.794;2022-09-13T13:55:30;1.25;;;1.20;;
60867;SDS011;46702;48.370;10.794;2022-09-13T14:00:58;1.05;;;1.00;;
60867;SDS011;46702;48.370;10.794;2022-09-13T14:09:07;1.20;;;1.20;;
60867;SDS011;46702;48.370;10.794;2022-09-13T14:14:46;2.97;;;1.20;;
60867;SDS011;46702;48.370;10.794;2022-09-13T14:17:57;0.98;;;0.95;;
60867;SDS011;46702;48.370;10.794;2022-09-13T14:20:32;0.90;;;0.90;;
60867;SDS011;46702;48.370;10.794;2022-09-13T14:23:11;1.50;;;1.00;;
60867;SDS011;46702;48.370;10.794;2022-09-13T14:25:42;1.48;;;1.10;;
60867;SDS011;46702;48.370;10.794;2022-09-13T14:28:11;0.90;;;0.90;;
60867;SDS011;46702;48.370;10.794;2022-09-13T14:30:39;1.08;;;1.02;;
60867;SDS011;46702;48.370;10.794;2022-09-13T14:33:05;0.90;;;0.90;;
60867;SDS011;46702;48.370;10.794;2022-09-13T14:35:42;0.98;;;0.98;;
60867;SDS011;46702;48.370;10.794;2022-09-13T14:38:21;1.33;;;0.90;;
60867;SDS011;46702;48.370;10.794;2022-09-13T14:40:57;1.00;;;1.00;;
60867;SDS011;46702;48.370;10.794;2022-09-13T14:43:26;1.30;;;1.20;;
60867;SDS011;46702;48.370;10.794;2022-09-13T14:48:26;0.90;;;0.90;;
60867;SDS011;46702;48.370;10.794;2022-09-13T14:54:26;1.00;;;1.00;;
60867;SDS011;46702;48.370;10.794;2022-09-13T14:57:26;1.20;;;1.10;;
60867;SDS011;46702;48.370;10.794;2022-09-13T15:00:13;1.85;;;1.20;;
60867;SDS011;46702;48.370;10.794;2022-09-13T15:02:42;1.38;;;0.90;;
60867;SDS011;46702;48.370;10.794;2022-09-13T15:05:14;2.55;;;1.30;;
60867;SDS011;46702;48.370;10.794;2022-09-13T15:07:42;1.42;;;0.90;;
60867;SDS011;46702;48.370;10.794;2022-09-13T15:12:49;2.17;;;1.40;;
60867;SDS011;46702;48.370;10.794;2022-09-13T15:18:00;1.58;;;1.30;;
60867;SDS011;46702;48.370;10.794;2022-09-13T15:23:25;2.17;;;1.20;;
60867;SDS011;46702;48.370;10.794;2022-09-13T15:25:54;1.20;;;1.10;;
60867;SDS011;46702;48.370;10.794;2022-09-13T15:28:50;1.40;;;1.20;;
60867;SDS011;46702;48.370;10.794;2022-09-13T15:31:32;2.70;;;1.23;;
60867;SDS011;46702;48.370;10.794;2022-09-13T15:39:45;1.45;;;1.23;;
60867;SDS011;46702;48.370;10.794;2022-09-13T15:42:25;1.20;;;1.10;;
60867;SDS011;46702;48.370;10.794;2022-09-13T15:44:51;1.60;;;1.50;;
60867;SDS011;46702;48.370;10.794;2022-09-13T15:47:17;2.40;;;1.45;;
60867;SDS011;46702;48.370;10.794;2022-09-13T15:49:47;1.30;;;1.20;;
60867;SDS011;46702;48.370;10.794;2022-09-13T15:52:15;2.00;;;1.45;;
60867;SDS011;46702;48.370;10.794;2022-09-13T15:54:41;1.60;;;1.50;;
60867;SDS011;46702;48.370;10.794;2022-09-13T15:57:08;2.70;;;1.50;;
60867;SDS011;46702;48.370;10.794;2022-09-13T15:59:46;1.35;;;1.25;;
60867;SDS011;46702;48.370;10.794;2022-09-13T16:02:16;1.88;;;1.10;;
60867;SDS011;46702;48.370;10.794;2022-09-13T16:04:47;1.77;;;1.00;;
60867;SDS011;46702;48.370;10.794;2022-09-13T16:07:13;1.25;;;1.25;;
60867;SDS011;46702;48.370;10.794;2022-09-13T16:09:40;1.40;;;1.30;;
60867;SDS011;46702;48.370;10.794;2022-09-13T16:12:06;4.90;;;1.50;;
60867;SDS011;46702;48.370;10.794;2022-09-13T16:14:32;3.20;;;1.58;;
60867;SDS011;46702;48.370;10.794;2022-09-13T16:16:59;1.52;;;1.35;;
60867;SDS011;46702;48.370;10.794;2022-09-13T16:19:31;2.28;;;1.30;;
60867;SDS011;46702;48.370;10.794;2022-09-13T16:21:57;2.00;;;1.48;;
60867;SDS011;46702;48.370;10.794;2022-09-13T16:24:24;3.35;;;1.55;;
60867;SDS011;46702;48.370;10.794;2022-09-13T16:26:49;1.85;;;1.30;;
60867;SDS011;46702;48.370;10.794;2022-09-13T16:29:15;1.50;;;1.40;;
60867;SDS011;46702;48.370;10.794;2022-09-13T16:31:41;6.60;;;2.55;;
60867;SDS011;46702;48.370;10.794;2022-09-13T16:34:07;5.22;;;2.10;;
60867;SDS011;46702;48.370;10.794;2022-09-13T16:36:33;3.67;;;1.50;;
60867;SDS011;46702;48.370;10.794;2022-09-13T16:38:59;3.35;;;1.70;;
60867;SDS011;46702;48.370;10.794;2022-09-13T16:41:24;1.48;;;1.38;;
60867;SDS011;46702;48.370;10.794;2022-09-13T16:43:50;3.67;;;1.40;;
60867;SDS011;46702;48.370;10.794;2022-09-13T16:46:20;4.53;;;1.77;;
60867;SDS011;46702;48.370;10.794;2022-09-13T16:48:51;6.70;;;1.70;;
60867;SDS011;46702;48.370;10.794;2022-09-13T16:51:18;2.78;;;1.50;;
60867;SDS011;46702;48.370;10.794;2022-09-13T16:53:43;3.25;;;1.40;;
60867;SDS011;46702;48.370;10.794;2022-09-13T16:56:14;2.17;;;1.27;;
60867;SDS011;46702;48.370;10.794;2022-09-13T16:58:42;1.65;;;1.50;;
60867;SDS011;46702;48.370;10.794;2022-09-13T17:01:10;2.63;;;1.45;;
60867;SDS011;46702;48.370;10.794;2022-09-13T17:06:04;2.88;;;1.35;;
60867;SDS011;46702;48.370;10.794;2022-09-13T17:08:32;1.55;;;1.38;;
60867;SDS011;46702;48.370;10.794;2022-09-13T17:10:59;2.20;;;1.40;;
60867;SDS011;46702;48.370;10.794;2022-09-13T17:13:28;1.58;;;1.48;;
60867;SDS011;46702;48.370;10.794;2022-09-13T17:15:54;3.97;;;1.63;;
60867;SDS011;46702;48.370;10.794;2022-09-13T17:18:20;1.98;;;1.38;;
60867;SDS011;46702;48.370;10.794;2022-09-13T17:20:51;1.88;;;1.45;;
60867;SDS011;46702;48.370;10.794;2022-09-13T17:23:16;2.55;;;1.63;;
60867;SDS011;46702;48.370;10.794;2022-09-13T17:25:44;2.10;;;1.90;;
60867;SDS011;46702;48.370;10.794;2022-09-13T17:28:11;2.50;;;1.73;;
60867;SDS011;46702;48.370;10.794;2022-09-13T17:30:38;6.30;;;1.88;;
60867;SDS011;46702;48.370;10.794;2022-09-13T17:33:05;8.18;;;2.15;;
60867;SDS011;46702;48.370;10.794;2022-09-13T17:35:31;2.55;;;1.60;;
60867;SDS011;46702;48.370;10.794;2022-09-13T17:37:59;4.93;;;1.50;;
60867;SDS011;46702;48.370;10.794;2022-09-13T17:40:27;3.80;;;1.65;;
60867;SDS011;46702;48.370;10.794;2022-09-13T17:42:53;2.00;;;1.55;;
60867;SDS011;46702;48.370;10.794;2022-09-13T17:45:19;1.90;;;1.40;;
60867;SDS011;46702;48.370;10.794;2022-09-13T17:47:45;2.55;;;1.83;;
60867;SDS011;46702;48.370;10.794;2022-09-13T17:50:11;4.45;;;1.60;;
60867;SDS011;46702;48.370;10.794;2022-09-13T17:52:37;3.22;;;1.75;;
60867;SDS011;46702;48.370;10.794;2022-09-13T17:55:04;2.35;;;1.73;;
60867;SDS011;46702;48.370;10.794;2022-09-13T17:57:31;2.20;;;1.93;;